Riverside, WA (98849)

5:56 PM PDT on August 02, 2015 (GMT -0700)
Omak | | Change Station
CLOSE
Current Station
Airport
Location: Omak,
Elevation: 1302 ft
Nearby Weather Stations

Elev 1302 ft 48.46 °N, 119.52 °W | Updated 3 minutes ago

Partly Cloudy
Partly Cloudy
92 °F
Feels Like 92 °F
N
6
Wind Variable Wind from SSW

Today
High -- | Low -- °F
--% Chance of Precip.
Yesterday
High -- | Low -- °F
Precip. -- in
5:34 AM 8:34 PM
Waning Gibbous, 91% visible
Pressure 29.72 in
Visibility 3.0 miles
Clouds Few 3400 ft
Mostly Cloudy 10000 ft
Dew Point 28 °F
Humidity 10%
Rainfall 0.00 in
Snow Depth Not available.
UV 1 out of 12
Pollen 6.50 out of 12
Air Quality Not available.
Flu Activity Not available.
METAR KOMK 030053Z AUTO 20005KT 3SM HZ FEW034 BKN100 33/M02 A2975 RMK AO2 SLP064 T03331022

More Conditions Fewer Conditions

Pressure 29.72 in
Visibility 3.0 miles
Clouds Few 3400 ft
Mostly Cloudy 10000 ft
Dew Point 28 °F
Humidity 10%
Rainfall 0.00 in
Snow Depth Not available.
UV 1 out of 12
Pollen 6.50 out of 12
Air Quality Not available.
Flu Activity Not available.
METAR KOMK 030053Z AUTO 20005KT 3SM HZ FEW034 BKN100 33/M02 A2975 RMK AO2 SLP064 T03331022

More Conditions Fewer Conditions

10-Day Weather Forecast

×

Almanac

Astronomy

Aug. 02, 2015 Rise Set
Actual Time
Civil Twilight
Nautical Twilight
Astronomical Twilight
Moon
Length of Visible Light
Length of Day
Tomorrow will be .
, % of the Moon is Illuminated

Today's Extremes

State Highs State Lows

Community

WunderPhotos

Upload Photos

1,843,474 photos uploaded!

WunderBlogs® & News

Nearby

Air Quality

  Air Quality AQ Index Pollutant
Not available.

Snow Depth

Station Depth Elevation

Earthquake Activity

City Distance Mag. Time & Date
Minimum magnitude displayed is 2.5.

Coastal Water Temperatures

Place Temperature

Stations

Nearby Weather Stations

Station Location Temp. Windchill Dew Point Humidity Wind Precip. Elev Updated Type